Time;durP1;ratioP1;P1;durP2;ratioP2;P2;SDS_P1;SDS_P2;PMS_P1;PMS_P2;Temp;Humidity;BMP_temperature;BMP_pressure;BME280_temperature;BME280_humidity;BME280_pressure;Samples;Min_cycle;Max_cycle;Signal;HPM_P1;HPM_P2
2024/01/25 00:04:34;;;;;;;70.32;41.30;;;;;;;1.74;86.12;98047.09;10284626;28;20081;-57
2024/01/25 00:09:33;;;;;;;83.47;48.70;;;;;;;1.84;86.83;98045.75;10286421;28;20120;-57
2024/01/25 00:14:32;;;;;;;81.85;50.40;;;;;;;1.84;87.38;98081.59;10285796;28;20113;-57
2024/01/25 00:19:31;;;;;;;66.72;40.85;;;;;;;2.03;87.36;98050.75;10295621;28;20108;-56
2024/01/25 00:24:30;;;;;;;76.70;43.38;;;;;;;2.02;87.26;98020.84;10326099;28;20037;-57
2024/01/25 00:29:30;;;;;;;79.88;45.05;;;;;;;2.19;87.47;98039.38;10306558;28;20034;-57
2024/01/25 00:34:30;;;;;;;74.38;45.50;;;;;;;2.13;87.27;97999.06;10325769;28;20079;-57
2024/01/25 00:39:29;;;;;;;75.32;45.45;;;;;;;2.37;87.05;98050.28;10326014;28;20061;-57
2024/01/25 00:44:28;;;;;;;;;;;;;;;2.19;87.98;98070.09;10325873;28;20069;-57
2024/01/25 00:49:27;;;;;;;62.72;35.88;;;;;;;2.37;87.13;98036.59;10325234;28;19912;-57
2024/01/25 00:54:26;;;;;;;63.10;37.13;;;;;;;2.45;87.20;98042.00;10325607;28;20482;-57
2024/01/25 00:59:26;;;;;;;56.03;34.38;;;;;;;2.47;87.20;98043.81;10325279;28;20061;-57
2024/01/25 01:04:25;;;;;;;;;;;;;;;2.59;87.28;98031.41;10324892;28;21032;-57
2024/01/25 01:09:24;;;;;;;47.08;28.88;;;;;;;2.52;87.43;97982.50;10324959;28;19952;-57
2024/01/25 01:14:24;;;;;;;64.38;40.17;;;;;;;2.89;87.60;97999.97;10325044;28;20052;-57
2024/01/25 01:19:23;;;;;;;48.53;30.80;;;;;;;2.75;87.85;97973.03;10324115;28;20037;-57
2024/01/25 01:24:22;;;;;;;48.90;29.73;;;;;;;3.00;87.57;97973.00;10294012;28;20052;-57
2024/01/25 01:29:21;;;;;;;32.80;21.95;;;;;;;3.04;87.72;97967.97;10282345;28;20052;-57
2024/01/25 01:34:20;;;;;;;38.60;25.70;;;;;;;3.06;89.17;97939.00;10283466;28;20400;-57
2024/01/25 01:39:18;;;;;;;33.20;22.30;;;;;;;3.18;88.63;97912.84;10283896;28;20021;-57
2024/01/25 01:44:17;;;;;;;32.38;20.55;;;;;;;3.44;88.23;97937.59;10282965;28;20116;-56
2024/01/25 01:49:17;;;;;;;41.85;25.52;;;;;;;3.02;89.07;97929.44;10280863;28;20527;-57
2024/01/25 01:54:16;;;;;;;;;;;;;;;3.26;88.98;97949.00;10265365;28;20074;-57
2024/01/25 01:59:16;;;;;;;46.22;28.48;;;;;;;3.31;88.68;97958.59;10283307;28;19916;-57
2024/01/25 02:04:15;;;;;;;30.08;19.10;;;;;;;3.16;88.43;97876.91;10282419;28;20085;-57
2024/01/25 02:09:14;;;;;;;25.33;15.02;;;;;;;3.59;88.30;97934.63;10283141;28;20041;-57
2024/01/25 02:14:13;;;;;;;50.50;28.75;;;;;;;3.46;87.93;97870.09;10282581;28;20542;-57
2024/01/25 02:19:11;;;;;;;47.28;28.02;;;;;;;3.94;87.34;97910.75;10289960;28;20031;-57
2024/01/25 02:24:10;;;;;;;38.10;23.95;;;;;;;3.82;87.23;97919.91;10322577;28;20040;-57
2024/01/25 02:29:09;;;;;;;38.95;22.33;;;;;;;3.55;87.33;97849.81;10322873;28;20021;-57
2024/01/25 02:34:08;;;;;;;28.60;15.73;;;;;;;3.88;87.18;97895.22;10322512;28;20033;-57
2024/01/25 02:39:07;;;;;;;29.20;17.33;;;;;;;3.98;87.20;97907.47;10323105;28;20017;-57
2024/01/25 02:44:07;;;;;;;33.47;20.63;;;;;;;4.07;87.00;97900.88;10330098;28;20134;-57
2024/01/25 02:49:06;;;;;;;40.42;28.92;;;;;;;3.48;86.80;97832.50;10329514;28;20710;-57
2024/01/25 02:54:05;;;;;;;43.97;28.27;;;;;;;3.94;87.22;97891.13;10330386;28;20569;-57
2024/01/25 02:59:04;;;;;;;39.97;25.92;;;;;;;3.74;86.85;97841.78;10329492;28;20080;-57
2024/01/25 03:04:03;;;;;;;33.47;19.02;;;;;;;3.94;86.61;97865.44;10328692;28;20134;-57
2024/01/25 03:09:04;;;;;;;51.55;30.13;;;;;;;3.60;86.49;97807.19;10329443;28;20069;-57
2024/01/25 03:14:03;;;;;;;45.97;26.60;;;;;;;3.68;86.40;97892.94;10329444;28;20469;-57
2024/01/25 03:19:02;;;;;;;28.85;16.48;;;;;;;3.60;86.28;97858.50;10328883;28;20369;-57
2024/01/25 03:24:01;;;;;;;29.60;19.52;;;;;;;3.62;85.71;97854.28;10300989;28;20030;-57
2024/01/25 03:29:00;;;;;;;22.70;13.77;;;;;;;3.62;86.66;97898.78;10287440;28;20033;-57
2024/01/25 03:33:59;;;;;;;20.50;11.15;;;;;;;3.70;84.85;97896.41;10286991;28;20484;-57
2024/01/25 03:38:58;;;;;;;13.50;8.25;;;;;;;3.89;81.61;97896.94;10286024;28;20112;-57
2024/01/25 03:43:56;;;;;;;14.50;7.97;;;;;;;4.37;81.60;97875.97;10287688;28;20109;-57
2024/01/25 03:48:55;;;;;;;17.92;12.23;;;;;;;4.45;81.34;97833.34;10286737;28;20117;-57
2024/01/25 03:53:55;;;;;;;23.77;13.45;;;;;;;4.67;80.95;97860.44;10285816;28;20033;-57
2024/01/25 03:58:54;;;;;;;24.85;15.23;;;;;;;4.51;81.05;97836.06;10287313;28;20072;-57
2024/01/25 04:03:53;;;;;;;29.33;17.58;;;;;;;4.40;80.85;97876.03;10286293;28;20093;-57
2024/01/25 04:08:52;;;;;;;18.73;11.23;;;;;;;4.06;81.26;97837.53;10286621;28;20137;-57
2024/01/25 04:13:50;;;;;;;14.68;10.35;;;;;;;4.18;80.95;97890.91;10268597;28;20041;-57
2024/01/25 04:18:49;;;;;;;20.02;12.85;;;;;;;4.00;80.94;97839.06;10290827;28;20033;-57
2024/01/25 04:23:48;;;;;;;21.00;12.13;;;;;;;3.95;80.48;97825.22;10326509;28;20545;-57
2024/01/25 04:28:47;;;;;;;28.00;16.70;;;;;;;4.26;79.86;97879.09;10326584;28;20116;-57
2024/01/25 04:33:47;;;;;;;21.05;13.68;;;;;;;4.21;80.42;97860.16;10325860;28;20542;-57
2024/01/25 04:38:46;;;;;;;18.10;11.73;;;;;;;4.47;80.38;97896.78;10325562;28;20065;-57
2024/01/25 04:43:46;;;;;;;17.98;11.50;;;;;;;4.44;80.22;97871.00;10325834;28;20105;-57
2024/01/25 04:48:46;;;;;;;18.98;13.13;;;;;;;4.00;79.58;97834.78;10325089;28;20072;-57
2024/01/25 04:53:45;;;;;;;20.92;14.15;;;;;;;3.95;79.96;97817.53;10325277;28;20088;-57
2024/01/25 04:58:44;;;;;;;23.17;14.38;;;;;;;4.13;80.47;97847.94;10325494;28;20122;-57
2024/01/25 05:03:43;;;;;;;24.08;15.70;;;;;;;4.20;79.98;97896.09;10324767;28;20613;-54
2024/01/25 05:08:43;;;;;;;42.90;29.02;;;;;;;4.01;79.66;97887.88;10324790;28;20766;-57
2024/01/25 05:13:42;;;;;;;40.13;26.67;;;;;;;4.25;79.59;97943.31;10324279;28;20061;-57
2024/01/25 05:18:41;;;;;;;29.50;19.42;;;;;;;4.30;79.70;97970.00;10322391;28;20104;-57
2024/01/25 05:23:39;;;;;;;24.42;16.52;;;;;;;4.36;80.15;97967.59;10299027;28;20117;-57
2024/01/25 05:28:38;;;;;;;15.93;10.98;;;;;;;4.43;79.63;97976.31;10313086;28;20096;-57
2024/01/25 05:33:41;;;;;;;18.40;11.27;;;;;;;3.88;79.40;97874.69;10322209;28;20037;-57
2024/01/25 05:38:40;;;;;;;26.90;14.82;;;;;;;4.39;78.74;97964.22;10321863;28;20057;-56
2024/01/25 05:43:39;;;;;;;23.08;14.02;;;;;;;4.28;78.81;97980.22;10322919;28;20144;-57
2024/01/25 05:48:39;;;;;;;10.70;7.60;;;;;;;2.85;78.29;97738.41;10322668;28;20112;-57
2024/01/25 05:53:38;;;;;;;11.95;8.05;;;;;;;4.35;78.47;98006.94;10321509;28;20091;-57
2024/01/25 05:58:37;;;;;;;50.78;28.15;;;;;;;4.50;77.74;98017.66;10319704;28;20045;-57
2024/01/25 06:03:36;;;;;;;27.98;18.50;;;;;;;4.37;77.43;97945.34;10321190;28;20111;-56
2024/01/25 06:08:35;;;;;;;20.17;13.60;;;;;;;4.64;76.96;98007.75;10322207;28;20041;-57
2024/01/25 06:13:34;;;;;;;26.88;17.50;;;;;;;4.43;77.14;97971.16;10323109;28;20471;-57
2024/01/25 06:18:33;;;;;;;33.63;23.42;;;;;;;4.41;77.05;97949.72;10328608;28;20069;-57
2024/01/25 06:23:32;;;;;;;55.30;36.50;;;;;;;4.03;77.16;97939.25;10329179;28;20486;-57
2024/01/25 06:28:31;;;;;;;47.80;29.80;;;;;;;4.17;77.35;97955.91;10325100;28;20786;-57
2024/01/25 06:33:30;;;;;;;46.75;29.45;;;;;;;4.41;77.07;98009.69;10328620;28;20095;-57
2024/01/25 06:38:29;;;;;;;54.35;31.95;;;;;;;4.20;77.15;97980.84;10326520;28;20033;-57
2024/01/25 06:43:28;;;;;;;47.88;28.27;;;;;;;4.45;77.53;98003.78;10329269;28;20091;-57
2024/01/25 06:48:27;;;;;;;44.80;30.95;;;;;;;4.44;77.38;97994.34;10309429;28;20662;-57
2024/01/25 06:53:26;;;;;;;42.75;27.33;;;;;;;3.86;76.33;97911.44;10307385;28;20026;-57
2024/01/25 06:58:25;;;;;;;48.22;32.00;;;;;;;4.58;76.98;98033.28;10307430;28;20080;-57
2024/01/25 07:03:24;;;;;;;51.72;34.35;;;;;;;4.58;76.43;98030.69;10306696;28;20089;-57
2024/01/25 07:08:24;;;;;;;51.33;33.67;;;;;;;4.61;76.65;98002.50;10289488;28;20044;-57
2024/01/25 07:13:23;;;;;;;53.22;31.60;;;;;;;4.97;75.35;98035.19;10328380;28;20108;-57
2024/01/25 07:18:24;;;;;;;65.68;40.50;;;;;;;4.87;75.33;98017.72;10328991;28;20068;-57
2024/01/25 07:23:23;;;;;;;58.78;33.60;;;;;;;5.06;75.64;98014.84;10350485;28;20072;-57
2024/01/25 07:28:22;;;;;;;42.28;26.70;;;;;;;5.28;74.95;98025.66;10367115;28;20043;-57
2024/01/25 07:33:21;;;;;;;43.08;28.65;;;;;;;5.47;73.95;98021.81;10303146;28;20048;-57
2024/01/25 07:38:20;;;;;;;47.45;30.08;;;;;;;5.69;73.33;98013.72;10327476;28;20109;-57
2024/01/25 07:43:19;;;;;;;39.75;24.77;;;;;;;5.94;71.74;98035.75;10309960;28;20045;-57
2024/01/25 07:48:17;;;;;;;37.28;25.67;;;;;;;6.26;71.49;98058.78;10304381;28;20091;-57
2024/01/25 07:53:17;;;;;;;43.08;26.33;;;;;;;6.33;71.03;98009.09;10326862;28;20439;-57
2024/01/25 07:58:16;;;;;;;30.70;19.05;;;;;;;6.65;67.85;98047.50;10326788;28;20061;-57
2024/01/25 08:03:16;;;;;;;105.80;68.93;;;;;;;6.37;65.26;98000.59;10327121;28;20046;-57
2024/01/25 08:08:15;;;;;;;69.70;46.90;;;;;;;6.64;66.70;98045.78;10326355;28;20533;-57
2024/01/25 08:13:14;;;;;;;67.75;46.38;;;;;;;7.06;65.59;98068.06;10324998;28;20040;-57
2024/01/25 08:18:13;;;;;;;62.22;43.03;;;;;;;7.21;66.07;98039.91;10326363;28;20025;-57
2024/01/25 08:23:13;;;;;;;;;;;;;;;7.76;65.45;98083.88;10326678;28;20075;-57
2024/01/25 08:28:12;;;;;;;60.53;39.35;;;;;;;7.47;65.91;98018.84;10325985;28;20778;-57
2024/01/25 08:33:11;;;;;;;43.00;31.95;;;;;;;6.91;64.59;97880.28;10325859;28;20037;-57
2024/01/25 08:38:10;;;;;;;43.78;30.38;;;;;;;7.75;61.80;98003.75;10318191;28;20132;-57
2024/01/25 08:43:09;;;;;;;41.60;29.55;;;;;;;8.31;62.45;98055.34;10286426;28;20029;-57
2024/01/25 08:48:08;;;;;;;43.13;29.10;;;;;;;8.30;61.70;98023.47;10297630;28;20033;-57
2024/01/25 08:53:07;;;;;;;45.90;33.20;;;;;;;8.37;62.04;98034.75;10295631;28;20120;-57
2024/01/25 08:58:06;;;;;;;45.63;31.65;;;;;;;8.57;60.82;98076.34;10266235;28;20041;-57
2024/01/25 09:03:06;;;;;;;35.17;25.23;;;;;;;8.60;60.22;98057.41;10299593;28;20045;-57
2024/01/25 09:08:05;;;;;;;32.83;22.35;;;;;;;8.43;58.30;97992.56;10301070;28;20144;-57
2024/01/25 09:13:04;;;;;;;27.52;20.23;;;;;;;8.97;56.29;98063.00;10309421;28;20112;-57
2024/01/25 09:18:03;;;;;;;31.55;23.27;;;;;;;9.18;56.13;98034.72;10299672;28;20159;-57
2024/01/25 09:23:02;;;;;;;39.20;27.77;;;;;;;9.55;55.75;98073.94;10294984;28;20179;-57
2024/01/25 09:28:01;;;;;;;39.55;28.55;;;;;;;9.68;55.70;98055.03;10302266;28;20500;-57
2024/01/25 09:33:00;;;;;;;38.88;28.20;;;;;;;9.97;56.34;98059.53;10296228;28;20910;-57
2024/01/25 09:37:59;;;;;;;35.53;23.92;;;;;;;9.66;54.99;97994.56;10287828;28;20036;-57
2024/01/25 09:42:58;;;;;;;33.88;23.52;;;;;;;9.94;54.98;98028.44;10283004;28;20025;-57
2024/01/25 09:47:57;;;;;;;37.88;26.67;;;;;;;10.25;52.98;98026.84;10263017;28;21313;-57
2024/01/25 09:52:57;;;;;;;35.15;23.90;;;;;;;10.33;52.66;98026.88;10275074;28;20051;-57
2024/01/25 09:57:57;;;;;;;29.10;19.45;;;;;;;10.45;54.17;98029.53;10261968;28;20116;-57
2024/01/25 10:02:56;;;;;;;25.58;15.00;;;;;;;10.51;51.70;97998.41;10261754;28;20161;-57
2024/01/25 10:08:00;;;;;;;21.80;13.02;;;;;;;10.55;52.42;98014.88;10273835;28;20119;-57
2024/01/25 10:12:59;;;;;;;16.92;10.30;;;;;;;10.79;52.79;98001.94;10290275;28;20076;-57
2024/01/25 10:17:58;;;;;;;10.35;8.13;;;;;;;10.76;51.84;97960.41;10249337;28;20041;-57
2024/01/25 10:22:58;;;;;;;11.90;7.45;;;;;;;10.69;51.19;97929.28;10262197;28;20100;-57
2024/01/25 10:27:57;;;;;;;11.20;8.32;;;;;;;11.23;50.18;97974.34;10298858;28;20076;-57
2024/01/25 10:32:58;;;;;;;11.02;7.50;;;;;;;11.24;48.78;97960.47;10279944;28;20522;-57
2024/01/25 10:37:57;;;;;;;11.23;8.05;;;;;;;11.24;48.60;97950.06;10297791;28;20061;-57
2024/01/25 10:42:56;;;;;;;11.32;8.25;;;;;;;11.00;47.32;97910.25;10276826;28;20742;-57
2024/01/25 10:47:56;;;;;;;10.57;6.70;;;;;;;11.05;47.56;97910.25;10281684;28;20136;-57
2024/01/25 10:52:55;;;;;;;17.92;11.25;;;;;;;11.23;47.50;97931.03;10283917;28;20136;-57
2024/01/25 10:57:54;;;;;;;10.88;7.47;;;;;;;11.12;46.35;97904.19;10261415;28;20128;-56
2024/01/25 11:02:55;;;;;;;21.63;16.67;;;;;;;10.62;45.98;97841.00;10264871;28;20056;-56
2024/01/25 11:07:55;;;;;;;17.35;10.52;;;;;;;10.97;45.68;97907.69;10294178;28;20087;-56
2024/01/25 11:12:59;;;;;;;48.75;35.95;;;;;;;10.98;43.57;97874.78;10306452;28;20091;-57
2024/01/25 11:17:59;;;;;;;20.05;13.20;;;;;;;11.15;45.72;97879.94;10300211;28;20069;-57
2024/01/25 11:23:04;;;;;;;15.90;12.00;;;;;;;10.59;44.77;97918.00;10275803;28;20113;-57
2024/01/25 11:28:05;;;;;;;9.07;6.18;;;;;;;9.81;50.42;97894.44;10274086;28;20069;-57
2024/01/25 11:33:05;;;;;;;11.07;6.25;;;;;;;8.84;46.27;97866.22;10275259;28;20128;-57
2024/01/25 11:38:04;;;;;;;10.88;6.70;;;;;;;8.97;45.92;97887.00;10305981;28;20433;-57
2024/01/25 11:43:10;;;;;;;14.02;8.95;;;;;;;8.77;48.36;97853.22;10303890;28;20460;-57
2024/01/25 11:48:09;;;;;;;12.43;6.90;;;;;;;8.95;48.35;97879.25;10282915;28;20124;-57
2024/01/25 11:53:09;;;;;;;8.90;5.50;;;;;;;9.23;48.10;97875.13;10266551;28;20128;-57
2024/01/25 11:58:08;;;;;;;11.00;5.85;;;;;;;9.31;48.89;97870.00;10271875;28;20124;-57
2024/01/25 12:03:08;;;;;;;10.32;6.50;;;;;;;9.42;44.86;97872.63;10265960;28;20124;-57
2024/01/25 12:08:13;;;;;;;7.50;5.70;;;;;;;9.18;50.12;97829.31;10247638;28;20171;-57
2024/01/25 12:13:12;;;;;;;8.75;6.28;;;;;;;9.05;46.54;97839.63;10264437;28;20112;-57
2024/01/25 12:18:11;;;;;;;9.73;6.65;;;;;;;9.42;53.15;97839.84;10264545;28;20465;-57
2024/01/25 12:23:10;;;;;;;11.02;6.30;;;;;;;9.68;56.07;97801.09;10262326;28;20462;-57
2024/01/25 12:28:10;;;;;;;13.85;6.00;;;;;;;10.08;57.86;97811.56;10264592;28;20028;-57
2024/01/25 12:33:09;;;;;;;;;;;;;;;10.61;58.10;97828.03;10265486;28;20105;-58
2024/01/25 12:38:07;;;;;;;11.75;7.07;;;;;;;10.10;55.19;97713.91;10265388;28;19928;-57
2024/01/25 12:43:07;;;;;;;6.65;5.63;;;;;;;10.57;47.06;97831.50;10264994;28;20128;-57
2024/01/25 12:48:09;;;;;;;9.10;6.60;;;;;;;10.82;50.85;97828.03;10264963;28;20117;-57
2024/01/25 12:53:11;;;;;;;10.00;6.30;;;;;;;10.74;47.97;97806.41;10264853;28;20124;-57
2024/01/25 12:58:09;;;;;;;12.73;7.40;;;;;;;10.51;48.93;97798.63;10264007;28;20116;-57
2024/01/25 13:03:08;;;;;;;11.43;7.10;;;;;;;10.88;49.49;97774.41;10277462;28;20050;-57
2024/01/25 13:08:07;;;;;;;10.65;7.10;;;;;;;10.89;48.60;97760.56;10262012;28;20038;-56
2024/01/25 13:13:06;;;;;;;14.43;7.07;;;;;;;10.90;45.19;97820.28;10262230;28;20041;-56
2024/01/25 13:18:05;;;;;;;12.25;6.75;;;;;;;10.64;43.53;97786.53;10267429;28;20488;-56
2024/01/25 13:23:04;;;;;;;7.63;6.15;;;;;;;10.72;44.08;97789.09;10263076;28;20044;-56
2024/01/25 13:28:03;;;;;;;10.50;6.30;;;;;;;9.98;42.37;97802.06;10267804;28;20136;-57
2024/01/25 13:33:02;;;;;;;;;;;;;;;10.04;40.58;97830.56;10292033;28;20120;-56
2024/01/25 13:38:01;;;;;;;11.13;5.72;;;;;;;10.29;39.99;97830.63;10296383;28;20318;-56
2024/01/25 13:43:00;;;;;;;7.93;5.05;;;;;;;10.16;40.16;97808.97;10296733;28;20057;-56
2024/01/25 13:47:59;;;;;;;15.02;7.65;;;;;;;10.33;40.81;97798.63;10280720;28;20047;-56
2024/01/25 13:52:58;;;;;;;17.80;8.75;;;;;;;10.19;39.52;97804.69;10267533;28;20503;-57
2024/01/25 13:57:57;;;;;;;13.25;8.20;;;;;;;10.15;40.03;97784.78;10265432;28;20029;-57
2024/01/25 14:02:56;;;;;;;11.68;7.63;;;;;;;10.31;41.10;97808.16;10265523;28;20041;-57
2024/01/25 14:07:55;;;;;;;11.95;6.45;;;;;;;9.94;40.99;97787.34;10280842;28;20040;-57
2024/01/25 14:12:54;;;;;;;8.45;5.72;;;;;;;9.64;42.15;97785.53;10260656;28;20034;-57
2024/01/25 14:17:53;;;;;;;13.07;6.47;;;;;;;9.42;41.94;97797.53;10243930;28;20057;-57
2024/01/25 14:22:52;;;;;;;18.65;9.25;;;;;;;9.52;43.41;97820.91;10261725;28;20037;-57
2024/01/25 14:27:51;;;;;;;15.73;9.02;;;;;;;9.64;42.98;97819.22;10274198;28;20036;-57
2024/01/25 14:32:50;;;;;;;23.75;11.85;;;;;;;9.66;43.15;97828.72;10262007;28;20116;-56
2024/01/25 14:37:49;;;;;;;13.63;8.90;;;;;;;9.30;43.70;97817.34;10266012;28;20040;-56
2024/01/25 14:42:48;;;;;;;26.38;13.15;;;;;;;9.25;43.13;97813.81;10282549;28;20018;-56
2024/01/25 14:47:47;;;;;;;;;;;;;;;9.48;43.37;97832.09;10304690;28;20057;-56
2024/01/25 14:52:46;;;;;;;22.35;12.07;;;;;;;9.25;43.96;97795.69;10308100;28;19920;-57
2024/01/25 14:57:45;;;;;;;20.13;13.65;;;;;;;9.48;44.23;97807.94;10302033;28;20464;-56
2024/01/25 15:02:44;;;;;;;26.50;15.15;;;;;;;9.22;43.94;97813.81;10309767;28;20783;-56
2024/01/25 15:07:43;;;;;;;19.35;13.38;;;;;;;9.07;44.32;97813.75;10282976;28;20723;-56
2024/01/25 15:12:42;;;;;;;21.13;12.73;;;;;;;9.08;45.02;97797.34;10306348;28;20061;-56
2024/01/25 15:17:41;;;;;;;33.00;17.20;;;;;;;8.96;44.93;97820.56;10319970;28;20561;-56
2024/01/25 15:22:40;;;;;;;28.95;16.58;;;;;;;8.99;45.03;97833.53;10305464;28;20483;-56
2024/01/25 15:27:39;;;;;;;21.38;12.10;;;;;;;8.68;45.83;97841.06;10304373;28;20288;-56
2024/01/25 15:32:39;;;;;;;16.55;10.55;;;;;;;8.46;45.90;97806.41;10298124;28;20032;-57
2024/01/25 15:37:38;;;;;;;11.85;8.68;;;;;;;8.50;45.86;97840.09;10276320;28;20471;-56
2024/01/25 15:42:37;;;;;;;27.77;17.63;;;;;;;8.57;46.29;97845.28;10270075;28;20988;-56
2024/01/25 15:47:37;;;;;;;28.05;18.17;;;;;;;8.71;46.67;97864.38;10266527;28;20228;-56
2024/01/25 15:52:36;;;;;;;20.88;13.85;;;;;;;8.66;47.41;97850.53;10277346;28;20461;-56
2024/01/25 15:57:35;;;;;;;46.00;25.67;;;;;;;8.20;46.60;97782.91;10302080;28;20475;-56
2024/01/25 16:02:34;;;;;;;21.48;14.82;;;;;;;8.44;46.74;97852.94;10269861;28;20060;-57
2024/01/25 16:07:33;;;;;;;27.00;17.88;;;;;;;8.57;47.60;97864.25;10275505;28;20106;-56
2024/01/25 16:12:31;;;;;;;38.50;25.60;;;;;;;8.53;47.08;97880.63;10285834;28;20108;-56
2024/01/25 16:17:30;;;;;;;36.20;23.58;;;;;;;8.09;47.69;97806.94;10286100;28;20076;-57
2024/01/25 16:22:30;;;;;;;50.10;32.85;;;;;;;8.50;47.78;97880.56;10314759;28;20033;-57
2024/01/25 16:27:29;;;;;;;54.67;35.80;;;;;;;8.08;48.12;97828.47;10367223;28;20065;-57
2024/01/25 16:32:28;;;;;;;52.05;31.42;;;;;;;8.32;48.73;97880.38;10367024;28;20029;-57
2024/01/25 16:37:26;;;;;;;44.58;29.10;;;;;;;8.33;49.41;97902.81;10365857;28;20090;-57
2024/01/25 16:42:25;;;;;;;39.83;27.25;;;;;;;7.83;48.95;97865.25;10365467;28;20025;-57
2024/01/25 16:47:24;;;;;;;46.03;29.80;;;;;;;8.26;49.11;97913.09;10365687;28;20044;-57
2024/01/25 16:52:23;;;;;;;40.33;27.90;;;;;;;8.09;49.71;97902.56;10365690;28;20025;-57
2024/01/25 16:57:22;;;;;;;55.33;31.35;;;;;;;7.90;50.40;97885.13;10366360;28;20538;-57
2024/01/25 17:02:21;;;;;;;53.67;32.28;;;;;;;7.78;50.48;97888.44;10364904;28;20762;-57
2024/01/25 17:07:20;;;;;;;58.85;34.33;;;;;;;7.94;50.57;97924.78;10364734;28;20028;-57
2024/01/25 17:12:19;;;;;;;29.60;16.88;;;;;;;7.71;49.31;97952.91;10364920;28;20068;-57
2024/01/25 17:17:18;;;;;;;31.60;19.83;;;;;;;7.73;49.96;97940.88;10365039;28;20430;-57
2024/01/25 17:22:17;;;;;;;27.73;17.25;;;;;;;7.84;49.71;97955.66;10364354;28;20470;-56
2024/01/25 17:27:17;;;;;;;17.60;10.55;;;;;;;7.47;46.39;97904.38;10364854;28;20060;-57
2024/01/25 17:32:16;;;;;;;12.13;8.82;;;;;;;7.93;46.13;97961.81;10363430;28;20120;-57
2024/01/25 17:37:15;;;;;;;10.88;6.85;;;;;;;7.87;45.40;97973.81;10362485;28;20029;-57
2024/01/25 17:42:14;;;;;;;13.00;7.63;;;;;;;7.87;45.79;97934.16;10363237;28;20057;-58
2024/01/25 17:47:13;;;;;;;11.60;7.55;;;;;;;8.17;45.94;97972.44;10323363;28;20112;-57
2024/01/25 17:52:12;;;;;;;20.60;10.02;;;;;;;7.45;44.79;97961.16;10321129;28;20517;-57
2024/01/25 17:57:10;;;;;;;19.60;10.38;;;;;;;7.81;44.68;97996.13;10323060;28;20084;-58
2024/01/25 18:02:09;;;;;;;13.20;7.93;;;;;;;7.80;44.20;97977.16;10323068;28;20559;-57
2024/01/25 18:07:08;;;;;;;18.23;9.25;;;;;;;7.98;44.00;97973.06;10321895;28;20470;-57
2024/01/25 18:12:07;;;;;;;22.48;10.50;;;;;;;6.92;44.73;97860.56;10325131;28;20052;-57
2024/01/25 18:17:06;;;;;;;24.23;12.13;;;;;;;7.61;44.96;97981.19;10331112;28;20065;-57
2024/01/25 18:22:05;;;;;;;26.27;12.15;;;;;;;7.86;44.98;97991.88;10341257;28;20031;-57
2024/01/25 18:27:04;;;;;;;18.75;9.38;;;;;;;7.87;44.71;97999.66;10371462;28;20033;-57
2024/01/25 18:32:04;;;;;;;45.95;21.48;;;;;;;6.92;44.92;97835.63;10371526;28;20079;-55
2024/01/25 18:37:03;;;;;;;33.40;16.33;;;;;;;7.70;45.24;97961.50;10370764;28;20068;-57
2024/01/25 18:42:02;;;;;;;26.13;13.52;;;;;;;7.94;44.73;97986.78;10370725;28;20061;-57
2024/01/25 18:47:02;;;;;;;41.00;22.27;;;;;;;7.78;44.95;97936.63;10371135;28;20072;-57
2024/01/25 18:52:03;;;;;;;53.65;26.45;;;;;;;8.23;44.27;97982.00;10350989;28;20072;-57
2024/01/25 18:57:02;;;;;;;18.83;9.60;;;;;;;6.81;44.53;97874.13;10369790;28;20064;-57
2024/01/25 19:02:02;;;;;;;;;;;;;;;7.70;45.20;98002.84;10369530;28;20064;-57
2024/01/25 19:07:01;;;;;;;14.17;9.30;;;;;;;7.80;45.40;98003.00;10367899;28;19955;-57
2024/01/25 19:12:01;;;;;;;24.02;15.13;;;;;;;7.81;45.42;97999.56;10368073;28;20701;-57
2024/01/25 19:17:00;;;;;;;15.95;9.13;;;;;;;6.71;45.60;97918.69;10367917;28;20061;-57
2024/01/25 19:21:59;;;;;;;14.55;8.63;;;;;;;6.87;46.69;97908.63;10366654;28;20474;-56
2024/01/25 19:26:58;;;;;;;15.82;8.35;;;;;;;6.94;47.22;98005.91;10366842;28;20478;-58
2024/01/25 19:31:57;;;;;;;11.35;6.93;;;;;;;7.01;46.32;98018.09;10368215;28;20065;-57
2024/01/25 19:36:56;;;;;;;14.88;7.53;;;;;;;7.06;45.62;98013.88;10367974;28;20112;-57
2024/01/25 19:41:55;;;;;;;13.52;8.30;;;;;;;7.18;45.89;98016.63;10367678;28;20065;-57
2024/01/25 19:46:54;;;;;;;14.90;9.18;;;;;;;7.10;46.65;98013.09;10366987;28;20041;-58
2024/01/25 19:51:53;;;;;;;18.60;10.07;;;;;;;7.32;46.00;98010.84;10367648;28;20061;-57
2024/01/25 19:56:52;;;;;;;17.77;10.57;;;;;;;7.47;46.46;97995.59;10367488;28;20055;-57
2024/01/25 20:01:51;;;;;;;13.32;8.57;;;;;;;7.62;46.63;98007.91;10367600;28;20107;-58
2024/01/25 20:06:50;;;;;;;;;;;;;;;7.64;46.34;98030.31;10367060;28;20065;-57
2024/01/25 20:11:49;;;;;;;16.50;10.38;;;;;;;7.71;46.63;98022.63;10367008;28;19974;-58
2024/01/25 20:16:48;;;;;;;19.90;11.48;;;;;;;7.61;46.18;98031.97;10318470;28;20042;-55
2024/01/25 20:21:48;;;;;;;15.63;8.18;;;;;;;7.51;46.51;98007.72;10326069;28;20022;-56
2024/01/25 20:26:47;;;;;;;13.90;7.07;;;;;;;7.31;46.17;97996.19;10325406;28;20069;-57
2024/01/25 20:31:46;;;;;;;13.85;7.05;;;;;;;6.63;45.11;97981.28;10325823;28;20051;-57
2024/01/25 20:36:45;;;;;;;12.90;7.22;;;;;;;7.03;45.50;98024.13;10325302;28;20112;-57
2024/01/25 20:41:44;;;;;;;11.52;6.63;;;;;;;5.81;45.21;97842.31;10325534;28;20017;-57
2024/01/25 20:46:43;;;;;;;17.35;7.57;;;;;;;6.85;45.25;98018.66;10326067;28;20033;-57
2024/01/25 20:51:42;;;;;;;6.07;5.20;;;;;;;6.40;44.98;98020.41;10324586;28;20526;-57
2024/01/25 20:56:41;;;;;;;12.75;6.25;;;;;;;6.48;44.40;97968.97;10325133;28;20033;-57
2024/01/25 21:01:40;;;;;;;9.52;6.00;;;;;;;6.56;45.02;97998.34;10325384;28;20671;-57
2024/01/25 21:06:39;;;;;;;11.45;7.50;;;;;;;5.85;44.86;97886.19;10324166;28;20084;-57
2024/01/25 21:11:38;;;;;;;17.48;9.40;;;;;;;6.67;45.77;98025.19;10322141;28;20485;-57
2024/01/25 21:16:38;;;;;;;15.38;6.70;;;;;;;6.58;45.63;98014.72;10323988;28;20069;-58
2024/01/25 21:21:37;;;;;;;22.08;11.30;;;;;;;6.56;46.52;98018.97;10323492;28;20053;-57
2024/01/25 21:26:36;;;;;;;10.90;6.47;;;;;;;6.16;45.50;98001.03;10324493;28;20731;-57
2024/01/25 21:31:35;;;;;;;16.42;7.93;;;;;;;6.30;45.81;97998.69;10323769;28;20116;-57
2024/01/25 21:36:34;;;;;;;17.10;7.78;;;;;;;6.29;45.20;98004.72;10323502;28;20045;-57
2024/01/25 21:41:33;;;;;;;14.05;8.30;;;;;;;4.76;44.33;97809.25;10323622;28;20101;-57
2024/01/25 21:46:32;;;;;;;15.10;8.10;;;;;;;5.94;44.02;97997.13;10322357;28;20021;-57
2024/01/25 21:51:31;;;;;;;14.30;6.80;;;;;;;6.46;44.45;98029.94;10323368;28;20033;-57
2024/01/25 21:56:30;;;;;;;9.18;6.22;;;;;;;6.22;44.13;98020.88;10323194;28;20067;-57
2024/01/25 22:01:29;;;;;;;11.93;7.57;;;;;;;5.28;43.24;97858.41;10322864;28;20072;-57
2024/01/25 22:06:28;;;;;;;12.05;6.82;;;;;;;6.27;43.03;97987.47;10323296;28;20081;-57
2024/01/25 22:11:27;;;;;;;51.45;27.30;;;;;;;6.49;42.88;98050.63;10322120;28;20029;-57
2024/01/25 22:16:26;;;;;;;30.48;16.38;;;;;;;6.48;42.78;98030.84;10322462;28;20049;-57
2024/01/25 22:21:24;;;;;;;18.05;8.55;;;;;;;6.51;43.68;98012.84;10322659;28;20017;-57
2024/01/25 22:26:23;;;;;;;16.40;8.93;;;;;;;6.49;44.37;98006.78;10322612;28;20033;-57
2024/01/25 22:31:22;;;;;;;18.02;10.80;;;;;;;6.50;45.02;98018.88;10304359;28;20041;-57
2024/01/25 22:36:21;;;;;;;27.50;12.48;;;;;;;6.57;43.18;98043.91;10304690;28;20056;-57
2024/01/25 22:41:20;;;;;;;19.75;12.15;;;;;;;6.59;43.79;98026.78;10321611;28;20022;-57
2024/01/25 22:46:19;;;;;;;19.73;10.15;;;;;;;6.70;43.24;98040.75;10321249;28;20498;-57
2024/01/25 22:51:18;;;;;;;13.55;7.90;;;;;;;6.58;43.56;97999.22;10322257;28;20808;-56
2024/01/25 22:56:17;;;;;;;14.88;8.98;;;;;;;6.78;44.20;98028.84;10320525;28;20403;-57
2024/01/25 23:01:16;;;;;;;16.55;10.02;;;;;;;6.56;45.62;97988.91;10327804;28;20072;-58
2024/01/25 23:06:15;;;;;;;15.38;8.77;;;;;;;6.56;46.14;98006.97;10329508;28;20048;-57